sensor_id;sensor_type;location;lat;lon;timestamp;temperature;humidity
758;DHT22;363;48.764;9.172;2024-02-16T00:01:20;13.10;99.90
758;DHT22;363;48.764;9.172;2024-02-16T00:03:46;13.20;99.90
758;DHT22;363;48.764;9.172;2024-02-16T00:08:38;11.10;99.90
758;DHT22;363;48.764;9.172;2024-02-16T00:11:05;12.80;99.90
758;DHT22;363;48.764;9.172;2024-02-16T00:13:31;11.10;99.90
758;DHT22;363;48.764;9.172;2024-02-16T00:18:22;11.20;99.90
758;DHT22;363;48.764;9.172;2024-02-16T00:20:49;12.30;99.90
758;DHT22;363;48.764;9.172;2024-02-16T00:25:40;11.30;99.90
758;DHT22;363;48.764;9.172;2024-02-16T00:28:07;11.30;99.90
758;DHT22;363;48.764;9.172;2024-02-16T00:30:33;12.40;99.90
758;DHT22;363;48.764;9.172;2024-02-16T00:35:26;11.40;99.90
758;DHT22;363;48.764;9.172;2024-02-16T00:40:18;11.50;99.90
758;DHT22;363;48.764;9.172;2024-02-16T00:42:43;12.70;99.90
758;DHT22;363;48.764;9.172;2024-02-16T00:47:35;11.60;99.90
758;DHT22;363;48.764;9.172;2024-02-16T00:50:01;10.80;99.90
758;DHT22;363;48.764;9.172;2024-02-16T00:52:27;12.50;99.90
758;DHT22;363;48.764;9.172;2024-02-16T00:54:52;12.30;99.90
758;DHT22;363;48.764;9.172;2024-02-16T00:57:18;11.80;99.90
758;DHT22;363;48.764;9.172;2024-02-16T01:02:09;11.60;99.90
758;DHT22;363;48.764;9.172;2024-02-16T01:04:36;12.00;99.90
758;DHT22;363;48.764;9.172;2024-02-16T01:07:02;12.40;99.90
758;DHT22;363;48.764;9.172;2024-02-16T01:11:55;11.80;99.90
758;DHT22;363;48.764;9.172;2024-02-16T01:14:21;13.70;99.90
758;DHT22;363;48.764;9.172;2024-02-16T01:19:13;11.80;99.90
758;DHT22;363;48.764;9.172;2024-02-16T01:21:38;13.50;99.90
758;DHT22;363;48.764;9.172;2024-02-16T01:24:07;11.20;99.90
758;DHT22;363;48.764;9.172;2024-02-16T01:26:34;11.50;99.90
758;DHT22;363;48.764;9.172;2024-02-16T01:29:00;13.40;99.90
758;DHT22;363;48.764;9.172;2024-02-16T01:31:27;13.80;99.90
758;DHT22;363;48.764;9.172;2024-02-16T01:33:53;11.00;99.90
758;DHT22;363;48.764;9.172;2024-02-16T01:36:19;11.70;99.90
758;DHT22;363;48.764;9.172;2024-02-16T01:38:44;11.80;99.90
758;DHT22;363;48.764;9.172;2024-02-16T01:41:10;12.30;99.90
758;DHT22;363;48.764;9.172;2024-02-16T01:43:36;13.40;99.90
758;DHT22;363;48.764;9.172;2024-02-16T01:46:02;12.00;99.90
758;DHT22;363;48.764;9.172;2024-02-16T01:48:28;11.80;99.90
758;DHT22;363;48.764;9.172;2024-02-16T01:50:54;12.90;99.90
758;DHT22;363;48.764;9.172;2024-02-16T01:53:21;12.60;99.90
758;DHT22;363;48.764;9.172;2024-02-16T01:55:49;11.70;99.90
758;DHT22;363;48.764;9.172;2024-02-16T01:58:15;12.00;99.90
758;DHT22;363;48.764;9.172;2024-02-16T02:00:40;13.50;99.90
758;DHT22;363;48.764;9.172;2024-02-16T02:05:32;11.70;99.90
758;DHT22;363;48.764;9.172;2024-02-16T02:07:58;13.70;99.90
758;DHT22;363;48.764;9.172;2024-02-16T02:12:50;11.80;99.90
758;DHT22;363;48.764;9.172;2024-02-16T02:15:15;11.90;99.90
758;DHT22;363;48.764;9.172;2024-02-16T02:17:41;12.80;99.90
758;DHT22;363;48.764;9.172;2024-02-16T02:20:07;13.00;99.90
758;DHT22;363;48.764;9.172;2024-02-16T02:22:39;12.00;99.90
758;DHT22;363;48.764;9.172;2024-02-16T02:25:04;11.90;99.90
758;DHT22;363;48.764;9.172;2024-02-16T02:27:30;12.00;99.90
758;DHT22;363;48.764;9.172;2024-02-16T02:29:56;13.30;99.90
758;DHT22;363;48.764;9.172;2024-02-16T02:32:21;12.90;99.90
758;DHT22;363;48.764;9.172;2024-02-16T02:34:47;11.60;99.90
758;DHT22;363;48.764;9.172;2024-02-16T02:37:13;13.10;99.90
758;DHT22;363;48.764;9.172;2024-02-16T02:39:39;13.30;99.90
758;DHT22;363;48.764;9.172;2024-02-16T02:42:05;12.90;99.90
758;DHT22;363;48.764;9.172;2024-02-16T02:44:32;12.00;99.90
758;DHT22;363;48.764;9.172;2024-02-16T02:46:58;13.10;99.90
758;DHT22;363;48.764;9.172;2024-02-16T02:49:23;13.20;99.90
758;DHT22;363;48.764;9.172;2024-02-16T02:51:49;12.60;99.90
758;DHT22;363;48.764;9.172;2024-02-16T02:56:41;11.90;99.90
758;DHT22;363;48.764;9.172;2024-02-16T03:01:34;11.50;99.90
758;DHT22;363;48.764;9.172;2024-02-16T03:04:00;12.80;99.90
758;DHT22;363;48.764;9.172;2024-02-16T03:06:26;12.80;99.90
758;DHT22;363;48.764;9.172;2024-02-16T03:08:52;12.50;99.90
758;DHT22;363;48.764;9.172;2024-02-16T03:11:17;14.00;99.90
758;DHT22;363;48.764;9.172;2024-02-16T03:13:44;11.70;99.90
758;DHT22;363;48.764;9.172;2024-02-16T03:18:36;11.90;99.90
758;DHT22;363;48.764;9.172;2024-02-16T03:21:02;11.00;99.90
758;DHT22;363;48.764;9.172;2024-02-16T03:23:28;11.60;99.90
758;DHT22;363;48.764;9.172;2024-02-16T03:28:20;11.70;99.90
758;DHT22;363;48.764;9.172;2024-02-16T03:30:48;13.10;99.90
758;DHT22;363;48.764;9.172;2024-02-16T03:33:14;12.10;99.90
758;DHT22;363;48.764;9.172;2024-02-16T03:35:40;11.40;99.90
758;DHT22;363;48.764;9.172;2024-02-16T03:38:06;11.70;99.90
758;DHT22;363;48.764;9.172;2024-02-16T03:40:32;14.10;99.90
758;DHT22;363;48.764;9.172;2024-02-16T03:42:58;14.00;99.90
758;DHT22;363;48.764;9.172;2024-02-16T03:45:24;12.60;99.90
758;DHT22;363;48.764;9.172;2024-02-16T03:47:52;13.10;99.90
758;DHT22;363;48.764;9.172;2024-02-16T03:50:19;13.70;99.90
758;DHT22;363;48.764;9.172;2024-02-16T03:52:45;13.10;99.90
758;DHT22;363;48.764;9.172;2024-02-16T03:55:10;12.00;99.90
758;DHT22;363;48.764;9.172;2024-02-16T03:57:37;13.30;99.90
758;DHT22;363;48.764;9.172;2024-02-16T04:00:03;14.10;99.90
758;DHT22;363;48.764;9.172;2024-02-16T04:02:31;11.80;99.90
758;DHT22;363;48.764;9.172;2024-02-16T04:04:57;12.70;99.90
758;DHT22;363;48.764;9.172;2024-02-16T04:07:22;13.10;99.90
758;DHT22;363;48.764;9.172;2024-02-16T04:09:49;13.50;99.90
758;DHT22;363;48.764;9.172;2024-02-16T04:12:14;13.40;99.90
758;DHT22;363;48.764;9.172;2024-02-16T04:14:40;10.50;99.90
758;DHT22;363;48.764;9.172;2024-02-16T04:17:07;12.70;99.90
758;DHT22;363;48.764;9.172;2024-02-16T04:19:33;13.50;99.90
758;DHT22;363;48.764;9.172;2024-02-16T04:21:59;13.30;99.90
758;DHT22;363;48.764;9.172;2024-02-16T04:24:24;14.10;99.90
758;DHT22;363;48.764;9.172;2024-02-16T04:26:50;11.50;99.90
758;DHT22;363;48.764;9.172;2024-02-16T04:29:15;11.10;99.90
758;DHT22;363;48.764;9.172;2024-02-16T04:31:42;11.20;99.90
758;DHT22;363;48.764;9.172;2024-02-16T04:34:08;12.30;99.90
758;DHT22;363;48.764;9.172;2024-02-16T04:36:34;13.20;99.90
758;DHT22;363;48.764;9.172;2024-02-16T04:41:26;12.00;99.90
758;DHT22;363;48.764;9.172;2024-02-16T04:46:19;11.90;99.90
758;DHT22;363;48.764;9.172;2024-02-16T04:48:45;13.40;99.90
758;DHT22;363;48.764;9.172;2024-02-16T04:51:11;13.20;99.90
758;DHT22;363;48.764;9.172;2024-02-16T04:53:37;11.90;99.90
758;DHT22;363;48.764;9.172;2024-02-16T04:56:02;13.00;99.90
758;DHT22;363;48.764;9.172;2024-02-16T04:58:28;12.00;99.90
758;DHT22;363;48.764;9.172;2024-02-16T05:00:54;14.30;99.90
758;DHT22;363;48.764;9.172;2024-02-16T05:03:21;13.10;99.90
758;DHT22;363;48.764;9.172;2024-02-16T05:05:46;12.20;99.90
758;DHT22;363;48.764;9.172;2024-02-16T05:08:12;13.30;99.90
758;DHT22;363;48.764;9.172;2024-02-16T05:13:04;12.00;99.90
758;DHT22;363;48.764;9.172;2024-02-16T05:15:30;11.80;99.90
758;DHT22;363;48.764;9.172;2024-02-16T05:17:56;11.00;99.90
758;DHT22;363;48.764;9.172;2024-02-16T05:20:23;10.70;99.90
758;DHT22;363;48.764;9.172;2024-02-16T05:22:48;12.00;99.90
758;DHT22;363;48.764;9.172;2024-02-16T05:25:18;13.60;99.90
758;DHT22;363;48.764;9.172;2024-02-16T05:27:44;12.90;99.90
758;DHT22;363;48.764;9.172;2024-02-16T05:30:11;11.90;99.90
758;DHT22;363;48.764;9.172;2024-02-16T05:32:38;12.30;99.90
758;DHT22;363;48.764;9.172;2024-02-16T05:35:05;13.60;99.90
758;DHT22;363;48.764;9.172;2024-02-16T05:37:37;13.50;99.90
758;DHT22;363;48.764;9.172;2024-02-16T05:40:07;14.60;99.90
758;DHT22;363;48.764;9.172;2024-02-16T05:42:47;12.60;99.90
758;DHT22;363;48.764;9.172;2024-02-16T05:45:16;13.30;99.90
758;DHT22;363;48.764;9.172;2024-02-16T05:47:42;12.40;99.90
758;DHT22;363;48.764;9.172;2024-02-16T05:50:11;12.60;99.90
758;DHT22;363;48.764;9.172;2024-02-16T05:52:38;12.40;99.90
758;DHT22;363;48.764;9.172;2024-02-16T05:55:06;13.70;99.90
758;DHT22;363;48.764;9.172;2024-02-16T05:57:32;12.30;99.90
758;DHT22;363;48.764;9.172;2024-02-16T06:02:23;12.50;99.90
758;DHT22;363;48.764;9.172;2024-02-16T06:04:51;12.30;99.90
758;DHT22;363;48.764;9.172;2024-02-16T06:07:17;12.10;99.90
758;DHT22;363;48.764;9.172;2024-02-16T06:09:42;11.70;99.90
758;DHT22;363;48.764;9.172;2024-02-16T06:12:09;12.40;99.90
758;DHT22;363;48.764;9.172;2024-02-16T06:14:36;15.00;99.90
758;DHT22;363;48.764;9.172;2024-02-16T06:19:28;12.30;99.90
758;DHT22;363;48.764;9.172;2024-02-16T06:21:54;12.30;99.90
758;DHT22;363;48.764;9.172;2024-02-16T06:24:23;12.20;99.90
758;DHT22;363;48.764;9.172;2024-02-16T06:26:49;12.80;99.90
758;DHT22;363;48.764;9.172;2024-02-16T06:29:17;12.20;99.90
758;DHT22;363;48.764;9.172;2024-02-16T06:31:42;12.20;99.90
758;DHT22;363;48.764;9.172;2024-02-16T06:34:08;12.10;99.90
758;DHT22;363;48.764;9.172;2024-02-16T06:36:34;12.40;99.90
758;DHT22;363;48.764;9.172;2024-02-16T06:38:59;12.30;99.90
758;DHT22;363;48.764;9.172;2024-02-16T06:41:25;12.50;99.90
758;DHT22;363;48.764;9.172;2024-02-16T06:43:51;12.40;99.90
758;DHT22;363;48.764;9.172;2024-02-16T06:46:17;12.20;99.90
758;DHT22;363;48.764;9.172;2024-02-16T06:48:42;12.20;99.90
758;DHT22;363;48.764;9.172;2024-02-16T06:51:08;12.20;99.90
758;DHT22;363;48.764;9.172;2024-02-16T06:53:33;12.70;99.90
758;DHT22;363;48.764;9.172;2024-02-16T06:55:59;12.30;99.90
758;DHT22;363;48.764;9.172;2024-02-16T06:58:24;12.30;99.90
758;DHT22;363;48.764;9.172;2024-02-16T07:00:50;11.90;99.90
758;DHT22;363;48.764;9.172;2024-02-16T07:03:15;12.50;99.90
758;DHT22;363;48.764;9.172;2024-02-16T07:05:41;12.00;99.90
758;DHT22;363;48.764;9.172;2024-02-16T07:08:06;12.30;99.90
758;DHT22;363;48.764;9.172;2024-02-16T07:10:33;12.00;99.90
758;DHT22;363;48.764;9.172;2024-02-16T07:13:00;11.90;99.90
758;DHT22;363;48.764;9.172;2024-02-16T07:15:25;11.60;99.90
758;DHT22;363;48.764;9.172;2024-02-16T07:17:55;11.80;99.90
758;DHT22;363;48.764;9.172;2024-02-16T07:20:20;11.60;99.90
758;DHT22;363;48.764;9.172;2024-02-16T07:22:46;11.70;99.90
758;DHT22;363;48.764;9.172;2024-02-16T07:25:12;11.60;99.90
758;DHT22;363;48.764;9.172;2024-02-16T07:27:38;11.80;99.90
758;DHT22;363;48.764;9.172;2024-02-16T07:30:04;11.80;99.90
758;DHT22;363;48.764;9.172;2024-02-16T07:32:30;11.40;99.90
758;DHT22;363;48.764;9.172;2024-02-16T07:34:56;12.10;99.90
758;DHT22;363;48.764;9.172;2024-02-16T07:37:21;11.70;99.90
758;DHT22;363;48.764;9.172;2024-02-16T07:39:47;12.00;99.90
758;DHT22;363;48.764;9.172;2024-02-16T07:42:12;11.80;99.90
758;DHT22;363;48.764;9.172;2024-02-16T07:44:41;11.60;99.90
758;DHT22;363;48.764;9.172;2024-02-16T07:47:07;12.30;99.90
758;DHT22;363;48.764;9.172;2024-02-16T07:49:32;12.00;99.90
758;DHT22;363;48.764;9.172;2024-02-16T07:51:58;12.10;99.90
758;DHT22;363;48.764;9.172;2024-02-16T07:54:23;12.10;99.90
758;DHT22;363;48.764;9.172;2024-02-16T07:56:49;11.50;99.90
758;DHT22;363;48.764;9.172;2024-02-16T07:59:15;11.90;99.90
758;DHT22;363;48.764;9.172;2024-02-16T08:01:41;12.30;99.90
758;DHT22;363;48.764;9.172;2024-02-16T08:04:10;11.60;99.90
758;DHT22;363;48.764;9.172;2024-02-16T08:06:36;12.00;99.90
758;DHT22;363;48.764;9.172;2024-02-16T08:09:02;11.60;99.90
758;DHT22;363;48.764;9.172;2024-02-16T08:11:27;12.00;99.90
758;DHT22;363;48.764;9.172;2024-02-16T08:13:53;12.40;99.90
758;DHT22;363;48.764;9.172;2024-02-16T08:16:20;11.90;99.90
758;DHT22;363;48.764;9.172;2024-02-16T08:18:46;12.10;99.90
758;DHT22;363;48.764;9.172;2024-02-16T08:21:12;12.20;99.90
758;DHT22;363;48.764;9.172;2024-02-16T08:23:37;12.60;99.90
758;DHT22;363;48.764;9.172;2024-02-16T08:26:03;12.70;99.90
758;DHT22;363;48.764;9.172;2024-02-16T08:28:29;12.50;99.90
758;DHT22;363;48.764;9.172;2024-02-16T08:30:55;12.50;99.90
758;DHT22;363;48.764;9.172;2024-02-16T08:33:20;13.30;99.90
758;DHT22;363;48.764;9.172;2024-02-16T08:35:46;12.60;99.90
758;DHT22;363;48.764;9.172;2024-02-16T08:38:12;13.30;99.90
758;DHT22;363;48.764;9.172;2024-02-16T08:40:38;13.90;99.90
758;DHT22;363;48.764;9.172;2024-02-16T08:43:04;13.80;99.90
758;DHT22;363;48.764;9.172;2024-02-16T08:45:30;13.80;99.90
758;DHT22;363;48.764;9.172;2024-02-16T08:47:56;14.00;99.90
758;DHT22;363;48.764;9.172;2024-02-16T08:50:23;14.60;99.90
758;DHT22;363;48.764;9.172;2024-02-16T08:52:49;14.20;99.90
758;DHT22;363;48.764;9.172;2024-02-16T08:55:15;14.50;99.90
758;DHT22;363;48.764;9.172;2024-02-16T08:57:41;14.60;99.90
758;DHT22;363;48.764;9.172;2024-02-16T09:00:07;14.30;99.90
758;DHT22;363;48.764;9.172;2024-02-16T09:02:33;14.60;99.90
758;DHT22;363;48.764;9.172;2024-02-16T09:04:58;14.30;99.90
758;DHT22;363;48.764;9.172;2024-02-16T09:07:24;15.30;99.90
758;DHT22;363;48.764;9.172;2024-02-16T09:09:51;17.30;98.40
758;DHT22;363;48.764;9.172;2024-02-16T09:12:16;19.00;94.10
758;DHT22;363;48.764;9.172;2024-02-16T09:14:42;21.90;91.30
758;DHT22;363;48.764;9.172;2024-02-16T09:17:07;22.40;83.80
758;DHT22;363;48.764;9.172;2024-02-16T09:19:33;21.40;83.40
758;DHT22;363;48.764;9.172;2024-02-16T09:22:00;22.30;81.30
758;DHT22;363;48.764;9.172;2024-02-16T09:24:28;23.20;78.20
758;DHT22;363;48.764;9.172;2024-02-16T09:26:55;24.80;77.80
758;DHT22;363;48.764;9.172;2024-02-16T09:29:20;24.30;76.60
758;DHT22;363;48.764;9.172;2024-02-16T09:31:49;22.30;77.10
758;DHT22;363;48.764;9.172;2024-02-16T09:34:15;22.10;75.60
758;DHT22;363;48.764;9.172;2024-02-16T09:36:42;21.80;77.80
758;DHT22;363;48.764;9.172;2024-02-16T09:39:07;21.30;78.60
758;DHT22;363;48.764;9.172;2024-02-16T09:41:34;21.30;79.50
758;DHT22;363;48.764;9.172;2024-02-16T09:44:02;21.00;79.10
758;DHT22;363;48.764;9.172;2024-02-16T09:46:30;21.10;80.10
758;DHT22;363;48.764;9.172;2024-02-16T09:49:02;21.70;80.10
758;DHT22;363;48.764;9.172;2024-02-16T09:51:29;21.60;79.00
758;DHT22;363;48.764;9.172;2024-02-16T09:53:54;22.60;77.40
758;DHT22;363;48.764;9.172;2024-02-16T09:56:23;23.30;73.70
758;DHT22;363;48.764;9.172;2024-02-16T09:58:53;22.40;73.30
758;DHT22;363;48.764;9.172;2024-02-16T10:01:21;22.10;73.80
758;DHT22;363;48.764;9.172;2024-02-16T10:03:47;22.80;76.80
758;DHT22;363;48.764;9.172;2024-02-16T10:06:13;22.30;77.70
758;DHT22;363;48.764;9.172;2024-02-16T10:08:51;22.30;77.70
758;DHT22;363;48.764;9.172;2024-02-16T10:11:18;21.40;76.70
758;DHT22;363;48.764;9.172;2024-02-16T10:13:59;21.60;76.50
758;DHT22;363;48.764;9.172;2024-02-16T10:16:27;21.50;76.70
758;DHT22;363;48.764;9.172;2024-02-16T10:19:06;21.60;76.90
758;DHT22;363;48.764;9.172;2024-02-16T10:21:32;21.30;78.30
758;DHT22;363;48.764;9.172;2024-02-16T10:24:05;21.10;77.50
758;DHT22;363;48.764;9.172;2024-02-16T10:26:34;20.60;78.90
758;DHT22;363;48.764;9.172;2024-02-16T10:29:04;20.10;79.90
758;DHT22;363;48.764;9.172;2024-02-16T10:31:31;20.00;81.80
758;DHT22;363;48.764;9.172;2024-02-16T10:33:59;19.80;81.40
758;DHT22;363;48.764;9.172;2024-02-16T10:36:25;22.40;83.60
758;DHT22;363;48.764;9.172;2024-02-16T10:38:54;20.00;80.60
758;DHT22;363;48.764;9.172;2024-02-16T10:41:20;19.60;79.50
758;DHT22;363;48.764;9.172;2024-02-16T10:43:48;19.70;80.40
758;DHT22;363;48.764;9.172;2024-02-16T10:46:17;19.50;79.60
758;DHT22;363;48.764;9.172;2024-02-16T10:48:42;19.30;80.10
758;DHT22;363;48.764;9.172;2024-02-16T10:51:09;19.40;81.00
758;DHT22;363;48.764;9.172;2024-02-16T10:53:35;19.60;82.10
758;DHT22;363;48.764;9.172;2024-02-16T10:56:01;19.50;81.20
758;DHT22;363;48.764;9.172;2024-02-16T10:58:27;19.10;81.20
758;DHT22;363;48.764;9.172;2024-02-16T11:00:55;19.60;81.50
758;DHT22;363;48.764;9.172;2024-02-16T11:03:23;19.30;81.50
758;DHT22;363;48.764;9.172;2024-02-16T11:05:50;19.20;82.00
758;DHT22;363;48.764;9.172;2024-02-16T11:08:17;19.30;81.50
758;DHT22;363;48.764;9.172;2024-02-16T11:11:00;19.20;81.00
758;DHT22;363;48.764;9.172;2024-02-16T11:13:27;20.20;83.50
758;DHT22;363;48.764;9.172;2024-02-16T11:16:03;21.40;86.30
758;DHT22;363;48.764;9.172;2024-02-16T11:18:32;19.10;83.50
758;DHT22;363;48.764;9.172;2024-02-16T11:21:02;19.30;83.70
758;DHT22;363;48.764;9.172;2024-02-16T11:23:28;19.00;83.00
758;DHT22;363;48.764;9.172;2024-02-16T11:26:05;19.70;83.70
758;DHT22;363;48.764;9.172;2024-02-16T11:28:35;19.30;82.80
758;DHT22;363;48.764;9.172;2024-02-16T11:31:01;19.70;83.70
758;DHT22;363;48.764;9.172;2024-02-16T11:33:28;20.00;84.40
758;DHT22;363;48.764;9.172;2024-02-16T11:35:58;19.40;82.80
758;DHT22;363;48.764;9.172;2024-02-16T11:38:25;19.80;84.20
758;DHT22;363;48.764;9.172;2024-02-16T11:41:10;19.70;83.40
758;DHT22;363;48.764;9.172;2024-02-16T11:43:36;19.60;82.80
758;DHT22;363;48.764;9.172;2024-02-16T11:46:15;19.70;83.20
758;DHT22;363;48.764;9.172;2024-02-16T11:48:42;19.70;83.10
758;DHT22;363;48.764;9.172;2024-02-16T11:51:08;20.10;82.60
758;DHT22;363;48.764;9.172;2024-02-16T11:53:34;20.10;82.50
758;DHT22;363;48.764;9.172;2024-02-16T11:55:59;20.50;81.30
758;DHT22;363;48.764;9.172;2024-02-16T11:58:25;21.20;81.20
758;DHT22;363;48.764;9.172;2024-02-16T12:00:51;21.00;78.80
758;DHT22;363;48.764;9.172;2024-02-16T12:03:24;21.00;78.20
758;DHT22;363;48.764;9.172;2024-02-16T12:05:59;21.40;78.00
758;DHT22;363;48.764;9.172;2024-02-16T12:08:32;21.90;77.10
758;DHT22;363;48.764;9.172;2024-02-16T12:11:03;22.60;77.30
758;DHT22;363;48.764;9.172;2024-02-16T12:13:28;22.10;75.90
758;DHT22;363;48.764;9.172;2024-02-16T12:15:54;22.00;76.00
758;DHT22;363;48.764;9.172;2024-02-16T12:18:24;21.40;76.40
758;DHT22;363;48.764;9.172;2024-02-16T12:24:12;21.70;76.90
758;DHT22;363;48.764;9.172;2024-02-16T12:26:37;21.90;76.60
758;DHT22;363;48.764;9.172;2024-02-16T12:29:03;21.70;77.80
758;DHT22;363;48.764;9.172;2024-02-16T12:31:30;22.20;77.90
758;DHT22;363;48.764;9.172;2024-02-16T12:33:55;22.10;78.00
758;DHT22;363;48.764;9.172;2024-02-16T12:36:21;22.10;77.70
758;DHT22;363;48.764;9.172;2024-02-16T12:38:49;22.10;78.00
758;DHT22;363;48.764;9.172;2024-02-16T12:41:14;21.90;78.00
758;DHT22;363;48.764;9.172;2024-02-16T12:43:40;21.60;78.10
758;DHT22;363;48.764;9.172;2024-02-16T12:46:05;21.80;79.20
758;DHT22;363;48.764;9.172;2024-02-16T12:48:31;22.10;79.40
758;DHT22;363;48.764;9.172;2024-02-16T12:50:56;21.80;78.70
758;DHT22;363;48.764;9.172;2024-02-16T12:53:23;21.40;79.50
758;DHT22;363;48.764;9.172;2024-02-16T12:55:50;21.00;80.70
758;DHT22;363;48.764;9.172;2024-02-16T12:58:16;20.90;81.30
758;DHT22;363;48.764;9.172;2024-02-16T13:00:41;22.30;82.50
758;DHT22;363;48.764;9.172;2024-02-16T13:03:07;21.00;81.40
758;DHT22;363;48.764;9.172;2024-02-16T13:05:33;20.90;81.60
758;DHT22;363;48.764;9.172;2024-02-16T13:07:59;20.80;82.00
758;DHT22;363;48.764;9.172;2024-02-16T13:10:25;20.70;83.20
758;DHT22;363;48.764;9.172;2024-02-16T13:12:50;20.80;84.10
758;DHT22;363;48.764;9.172;2024-02-16T13:15:16;20.50;83.60
758;DHT22;363;48.764;9.172;2024-02-16T13:17:41;20.90;84.10
758;DHT22;363;48.764;9.172;2024-02-16T13:20:07;20.50;82.30
758;DHT22;363;48.764;9.172;2024-02-16T13:22:36;20.10;82.60
758;DHT22;363;48.764;9.172;2024-02-16T13:25:03;20.40;83.20
758;DHT22;363;48.764;9.172;2024-02-16T13:27:30;20.50;83.90
758;DHT22;363;48.764;9.172;2024-02-16T13:29:55;20.20;84.00
758;DHT22;363;48.764;9.172;2024-02-16T13:32:21;20.20;84.70
758;DHT22;363;48.764;9.172;2024-02-16T13:34:46;20.20;85.70
758;DHT22;363;48.764;9.172;2024-02-16T13:37:12;19.90;84.70
758;DHT22;363;48.764;9.172;2024-02-16T13:39:38;20.00;85.70
758;DHT22;363;48.764;9.172;2024-02-16T13:42:04;20.20;85.40
758;DHT22;363;48.764;9.172;2024-02-16T13:44:30;19.70;85.30
758;DHT22;363;48.764;9.172;2024-02-16T13:46:55;19.60;85.30
758;DHT22;363;48.764;9.172;2024-02-16T13:49:21;20.10;85.80
758;DHT22;363;48.764;9.172;2024-02-16T13:51:46;19.50;85.50
758;DHT22;363;48.764;9.172;2024-02-16T13:54:12;19.80;86.10
758;DHT22;363;48.764;9.172;2024-02-16T13:56:37;19.40;86.10
758;DHT22;363;48.764;9.172;2024-02-16T13:59:04;19.40;86.70
758;DHT22;363;48.764;9.172;2024-02-16T14:01:30;19.80;87.70
758;DHT22;363;48.764;9.172;2024-02-16T14:03:56;20.00;88.20
758;DHT22;363;48.764;9.172;2024-02-16T14:06:22;19.80;88.50
758;DHT22;363;48.764;9.172;2024-02-16T14:08:47;19.60;87.90
758;DHT22;363;48.764;9.172;2024-02-16T14:11:18;20.20;89.60
758;DHT22;363;48.764;9.172;2024-02-16T14:13:44;19.70;89.20
758;DHT22;363;48.764;9.172;2024-02-16T14:16:09;19.50;88.90
758;DHT22;363;48.764;9.172;2024-02-16T14:18:36;19.20;88.90
758;DHT22;363;48.764;9.172;2024-02-16T14:21:02;20.10;90.10
758;DHT22;363;48.764;9.172;2024-02-16T14:23:29;19.10;90.30
758;DHT22;363;48.764;9.172;2024-02-16T14:25:54;19.50;90.40
758;DHT22;363;48.764;9.172;2024-02-16T14:28:20;19.50;90.40
758;DHT22;363;48.764;9.172;2024-02-16T14:30:45;19.50;90.50
758;DHT22;363;48.764;9.172;2024-02-16T14:33:11;19.80;90.80
758;DHT22;363;48.764;9.172;2024-02-16T14:35:37;19.40;90.70
758;DHT22;363;48.764;9.172;2024-02-16T14:38:03;19.40;90.50
758;DHT22;363;48.764;9.172;2024-02-16T14:40:30;19.00;90.70
758;DHT22;363;48.764;9.172;2024-02-16T14:42:56;19.40;91.30
758;DHT22;363;48.764;9.172;2024-02-16T14:45:21;19.30;91.60
758;DHT22;363;48.764;9.172;2024-02-16T14:47:48;19.40;91.30
758;DHT22;363;48.764;9.172;2024-02-16T14:50:13;19.20;91.70
758;DHT22;363;48.764;9.172;2024-02-16T14:52:40;19.30;92.00
758;DHT22;363;48.764;9.172;2024-02-16T14:55:06;19.30;92.00
758;DHT22;363;48.764;9.172;2024-02-16T14:57:44;19.00;91.90
758;DHT22;363;48.764;9.172;2024-02-16T15:00:11;19.20;92.30
758;DHT22;363;48.764;9.172;2024-02-16T15:02:37;18.80;92.20
758;DHT22;363;48.764;9.172;2024-02-16T15:05:04;19.10;92.80
758;DHT22;363;48.764;9.172;2024-02-16T15:07:30;18.60;92.70
758;DHT22;363;48.764;9.172;2024-02-16T15:09:56;18.90;93.20
758;DHT22;363;48.764;9.172;2024-02-16T15:12:22;18.00;93.00
758;DHT22;363;48.764;9.172;2024-02-16T15:14:48;18.40;93.20
758;DHT22;363;48.764;9.172;2024-02-16T15:17:14;18.80;94.00
758;DHT22;363;48.764;9.172;2024-02-16T15:19:40;18.50;93.80
758;DHT22;363;48.764;9.172;2024-02-16T15:22:06;18.80;93.80
758;DHT22;363;48.764;9.172;2024-02-16T15:24:31;18.40;93.90
758;DHT22;363;48.764;9.172;2024-02-16T15:26:57;18.70;93.90
758;DHT22;363;48.764;9.172;2024-02-16T15:29:22;18.80;94.00
758;DHT22;363;48.764;9.172;2024-02-16T15:31:48;18.60;93.80
758;DHT22;363;48.764;9.172;2024-02-16T15:34:14;19.00;94.00
758;DHT22;363;48.764;9.172;2024-02-16T15:36:42;19.10;94.20
758;DHT22;363;48.764;9.172;2024-02-16T15:39:08;18.30;93.80
758;DHT22;363;48.764;9.172;2024-02-16T15:41:34;18.70;93.90
758;DHT22;363;48.764;9.172;2024-02-16T15:43:59;19.00;94.00
758;DHT22;363;48.764;9.172;2024-02-16T15:46:25;18.80;94.10
758;DHT22;363;48.764;9.172;2024-02-16T15:48:50;19.00;94.20
758;DHT22;363;48.764;9.172;2024-02-16T15:51:17;18.90;94.10
758;DHT22;363;48.764;9.172;2024-02-16T15:53:42;18.90;94.30
758;DHT22;363;48.764;9.172;2024-02-16T15:56:08;18.70;94.70
758;DHT22;363;48.764;9.172;2024-02-16T15:58:34;18.10;94.50
758;DHT22;363;48.764;9.172;2024-02-16T16:00:59;18.70;95.00
758;DHT22;363;48.764;9.172;2024-02-16T16:03:25;18.60;95.00
758;DHT22;363;48.764;9.172;2024-02-16T16:05:51;18.70;95.10
758;DHT22;363;48.764;9.172;2024-02-16T16:08:19;17.90;94.90
758;DHT22;363;48.764;9.172;2024-02-16T16:10:45;18.70;95.40
758;DHT22;363;48.764;9.172;2024-02-16T16:13:11;18.10;95.30
758;DHT22;363;48.764;9.172;2024-02-16T16:15:37;18.30;95.40
758;DHT22;363;48.764;9.172;2024-02-16T16:18:03;18.20;95.50
758;DHT22;363;48.764;9.172;2024-02-16T16:20:29;18.20;95.50
758;DHT22;363;48.764;9.172;2024-02-16T16:22:54;18.60;95.90
758;DHT22;363;48.764;9.172;2024-02-16T16:25:20;18.20;95.70
758;DHT22;363;48.764;9.172;2024-02-16T16:27:46;18.50;95.80
758;DHT22;363;48.764;9.172;2024-02-16T16:30:13;18.50;95.80
758;DHT22;363;48.764;9.172;2024-02-16T16:32:42;18.00;95.70
758;DHT22;363;48.764;9.172;2024-02-16T16:35:07;18.10;95.90
758;DHT22;363;48.764;9.172;2024-02-16T16:37:35;18.00;96.10
758;DHT22;363;48.764;9.172;2024-02-16T16:40:01;18.10;96.40
758;DHT22;363;48.764;9.172;2024-02-16T16:42:27;18.10;96.80
758;DHT22;363;48.764;9.172;2024-02-16T16:44:56;17.30;96.60
758;DHT22;363;48.764;9.172;2024-02-16T16:47:22;18.30;97.20
758;DHT22;363;48.764;9.172;2024-02-16T16:49:48;17.60;96.90
758;DHT22;363;48.764;9.172;2024-02-16T16:52:14;17.80;97.10
758;DHT22;363;48.764;9.172;2024-02-16T16:54:39;17.70;97.10
758;DHT22;363;48.764;9.172;2024-02-16T16:57:05;18.10;97.30
758;DHT22;363;48.764;9.172;2024-02-16T16:59:32;17.50;97.10
758;DHT22;363;48.764;9.172;2024-02-16T17:01:58;18.00;97.70
758;DHT22;363;48.764;9.172;2024-02-16T17:04:24;17.70;97.80
758;DHT22;363;48.764;9.172;2024-02-16T17:06:49;17.40;98.00
758;DHT22;363;48.764;9.172;2024-02-16T17:09:15;17.60;97.90
758;DHT22;363;48.764;9.172;2024-02-16T17:11:43;17.50;98.20
758;DHT22;363;48.764;9.172;2024-02-16T17:14:10;17.40;98.80
758;DHT22;363;48.764;9.172;2024-02-16T17:16:35;17.00;99.10
758;DHT22;363;48.764;9.172;2024-02-16T17:19:01;17.30;99.60
758;DHT22;363;48.764;9.172;2024-02-16T17:21:28;16.80;99.30